Time;durP1;ratioP1;P1;durP2;ratioP2;P2;SDS_P1;SDS_P2;PMS_P1;PMS_P2;Temp;Humidity;BMP_temperature;BMP_pressure;BME280_temperature;BME280_humidity;BME280_pressure;Samples;Min_cycle;Max_cycle;Signal;HPM_P1;HPM_P2
2021/01/29 00:01:18;;;;;;;43.42;19.25;;;;;;;1.38;100.00;97426.21;4201133;84;28545;-77
2021/01/29 00:07:21;;;;;;;38.88;18.10;;;;;;;1.34;100.00;97430.28;4196217;84;28596;-77
2021/01/29 00:13:24;;;;;;;36.75;16.35;;;;;;;1.34;100.00;97440.37;4190817;83;28630;-77
2021/01/29 00:19:26;;;;;;;34.40;15.35;;;;;;;1.29;100.00;97457.92;4210536;82;28576;-77
2021/01/29 00:25:33;;;;;;;36.08;15.10;;;;;;;1.32;100.00;97459.64;4266384;82;44454;-77
2021/01/29 00:31:35;;;;;;;32.63;14.98;;;;;;;1.31;100.00;97446.60;4275206;82;28624;-78
2021/01/29 00:37:38;;;;;;;28.73;13.65;;;;;;;1.34;100.00;97436.91;4279764;82;28633;-78
2021/01/29 00:43:40;;;;;;;23.67;12.47;;;;;;;1.42;100.00;97416.80;4259311;82;28670;-78
2021/01/29 00:49:42;;;;;;;24.47;12.50;;;;;;;1.42;100.00;97414.69;4276336;82;28547;-76
2021/01/29 00:55:45;;;;;;;25.35;11.55;;;;;;;1.46;100.00;97423.82;4250932;82;28572;-77
2021/01/29 01:01:49;;;;;;;21.17;10.23;;;;;;;1.44;100.00;97429.31;4263661;82;28605;-77
2021/01/29 01:07:53;;;;;;;24.77;12.53;;;;;;;1.49;100.00;97419.41;4190441;82;28588;-76
2021/01/29 01:14:07;;;;;;;22.42;11.08;;;;;;;1.46;100.00;97414.05;4465049;78;85557;-77
2021/01/29 01:20:22;;;;;;;23.22;11.97;;;;;;;1.41;100.00;97432.40;4404709;80;42924;-76
2021/01/29 01:26:25;;;;;;;23.25;11.68;;;;;;;1.46;100.00;97426.47;4405429;80;28588;-75
2021/01/29 01:32:38;;;;;;;21.27;10.70;;;;;;;1.46;100.00;97431.27;4409161;80;44473;-76
2021/01/29 01:38:59;;;;;;;25.23;12.65;;;;;;;1.39;100.00;97428.62;4412123;80;28615;-76
2021/01/29 01:45:28;;;;;;;23.50;12.82;;;;;;;1.37;100.00;97434.66;4413802;80;43755;-77
2021/01/29 01:51:38;;;;;;;22.07;11.03;;;;;;;1.35;100.00;97437.20;4424164;80;28526;-76
2021/01/29 01:57:43;;;;;;;26.33;12.68;;;;;;;1.38;100.00;97459.31;4409788;80;28545;-76
2021/01/29 02:03:56;;;;;;;28.50;13.90;;;;;;;1.38;100.00;97445.54;4362626;79;85562;-77
2021/01/29 02:10:08;;;;;;;28.10;13.25;;;;;;;1.31;100.00;97442.63;4279741;81;28548;-77
2021/01/29 02:16:44;;;;;;;28.47;13.65;;;;;;;1.30;100.00;97435.71;4327575;80;28579;-77
2021/01/29 02:23:22;;;;;;;30.75;14.65;;;;;;;1.32;100.00;97442.93;4301178;80;28545;-77
2021/01/29 02:30:17;;;;;;;30.82;15.50;;;;;;;1.18;100.00;97452.76;4306216;80;28579;-77
2021/01/29 02:37:00;;;;;;;32.63;16.52;;;;;;;1.08;100.00;97471.22;4313929;80;28631;-77
2021/01/29 02:43:28;;;;;;;32.35;16.45;;;;;;;1.10;100.00;97469.20;4311808;80;28630;-76
2021/01/29 02:50:06;;;;;;;39.92;17.65;;;;;;;1.07;100.00;97462.17;4322798;81;28625;-77
2021/01/29 02:57:01;;;;;;;28.98;14.90;;;;;;;1.03;100.00;97464.92;4315566;80;28550;-77
2021/01/29 03:03:23;;;;;;;34.75;16.23;;;;;;;1.05;100.00;97488.84;4314054;81;44105;-77
2021/01/29 03:09:45;;;;;;;34.98;16.50;;;;;;;1.01;100.00;97484.17;4328550;80;28566;-77
2021/01/29 03:16:18;;;;;;;32.93;16.25;;;;;;;1.06;100.00;97497.09;4320944;80;28560;-77
2021/01/29 03:22:51;;;;;;;33.70;15.65;;;;;;;1.14;100.00;97495.24;4318217;81;28579;-77
2021/01/29 03:29:16;;;;;;;32.20;13.88;;;;;;;1.07;100.00;97501.36;4327406;80;28601;-77
2021/01/29 03:35:35;;;;;;;25.85;11.53;;;;;;;1.04;100.00;97513.69;4576281;76;85146;-77
2021/01/29 03:41:50;;;;;;;27.10;12.13;;;;;;;0.56;100.00;97533.28;4459526;78;28729;-77
2021/01/29 03:48:20;;;;;;;21.42;10.53;;;;;;;0.33;100.00;97529.70;4509611;78;44471;-77
2021/01/29 03:55:09;;;;;;;27.60;12.85;;;;;;;0.38;100.00;97541.83;4513662;78;28534;-77
2021/01/29 04:01:53;;;;;;;24.63;12.15;;;;;;;0.35;100.00;97547.00;4409474;79;85215;-78
2021/01/29 04:08:11;;;;;;;28.65;13.28;;;;;;;0.37;100.00;97558.19;4290952;81;28602;-77
2021/01/29 04:14:56;;;;;;;28.57;12.70;;;;;;;0.34;100.00;97562.56;4388587;79;74717;-77
2021/01/29 04:21:10;;;;;;;28.42;12.28;;;;;;;0.19;100.00;97573.81;4318870;80;43639;-77
2021/01/29 04:27:19;;;;;;;23.50;10.75;;;;;;;0.15;100.00;97568.63;4314758;80;28586;-77
2021/01/29 04:33:29;;;;;;;26.77;11.97;;;;;;;0.13;100.00;97566.17;4305248;81;28601;-77
2021/01/29 04:39:39;;;;;;;24.47;11.15;;;;;;;-0.17;100.00;97583.17;4289614;81;28627;-77
2021/01/29 04:45:58;;;;;;;22.80;10.35;;;;;;;-0.01;100.00;97587.29;4272320;80;44500;-77
2021/01/29 04:52:18;;;;;;;19.87;9.38;;;;;;;-0.13;100.00;97584.09;4304605;81;43908;-78
2021/01/29 04:58:26;;;;;;;19.87;8.93;;;;;;;-0.19;100.00;97572.48;4311889;80;43951;-78
2021/01/29 05:05:16;;;;;;;22.02;9.48;;;;;;;-0.19;100.00;97579.92;4314207;80;28561;-77
2021/01/29 05:12:10;;;;;;;18.12;8.43;;;;;;;-0.26;100.00;97587.48;4610212;76;85613;-77
2021/01/29 05:18:35;;;;;;;18.70;9.28;;;;;;;-0.31;100.00;97584.14;4498823;78;43900;-78
2021/01/29 05:25:09;;;;;;;16.37;7.85;;;;;;;-0.50;100.00;97575.92;4496539;78;43904;-78
2021/01/29 05:32:01;;;;;;;17.98;7.90;;;;;;;-0.65;100.00;97577.37;4593036;76;84954;-77
2021/01/29 05:38:35;;;;;;;13.55;6.05;;;;;;;-0.72;100.00;97588.39;4481659;78;43949;-76
2021/01/29 05:45:03;;;;;;;12.65;6.58;;;;;;;-0.79;100.00;97600.23;4503804;78;43576;-75
2021/01/29 05:51:16;;;;;;;13.85;5.70;;;;;;;-1.02;100.00;97602.62;4485423;79;43555;-76
2021/01/29 05:58:08;;;;;;;10.75;5.70;;;;;;;-1.27;100.00;97598.26;4511321;79;43265;-77
2021/01/29 06:05:06;;;;;;;11.75;5.17;;;;;;;-1.25;100.00;97606.79;4503783;78;43206;-76
2021/01/29 06:11:49;;;;;;;13.25;5.80;;;;;;;-1.44;100.00;97613.53;4510577;78;43249;-76
2021/01/29 06:18:21;;;;;;;15.58;6.28;;;;;;;-1.42;100.00;97624.70;4509780;78;43924;-77
2021/01/29 06:25:02;;;;;;;14.25;6.90;;;;;;;-1.42;100.00;97607.56;4513157;78;43923;-77
2021/01/29 06:31:34;;;;;;;16.10;7.17;;;;;;;-1.45;100.00;97617.17;4510568;77;43901;-77
2021/01/29 06:37:56;;;;;;;14.65;6.78;;;;;;;-1.46;100.00;97625.58;4504641;78;43916;-77
2021/01/29 06:44:35;;;;;;;16.75;7.72;;;;;;;-1.46;100.00;97613.71;4504692;78;43900;-77
2021/01/29 06:50:45;;;;;;;16.17;7.03;;;;;;;-1.48;100.00;97618.36;4495651;79;43951;-77
2021/01/29 06:57:11;;;;;;;15.13;7.60;;;;;;;-1.37;100.00;97629.41;4501431;78;43932;-77
2021/01/29 07:03:52;;;;;;;13.58;6.22;;;;;;;-1.16;100.00;97620.16;4494956;77;43599;-77
2021/01/29 07:10:24;;;;;;;8.93;4.10;;;;;;;-0.94;100.00;97617.97;4499807;77;28546;-77
2021/01/29 07:16:37;;;;;;;9.15;3.33;;;;;;;-0.77;100.00;97620.64;4501615;77;42778;-77
2021/01/29 07:23:00;;;;;;;7.25;3.77;;;;;;;-0.65;100.00;97600.30;4485072;77;42713;-79
2021/01/29 07:29:35;;;;;;;9.78;4.35;;;;;;;-0.42;100.00;97590.78;4512352;78;42691;-79
2021/01/29 07:35:53;;;;;;;8.95;4.42;;;;;;;-0.31;100.00;97586.27;4503277;78;42765;-77
2021/01/29 07:42:18;;;;;;;9.00;4.83;;;;;;;-0.21;100.00;97578.48;4502823;78;42780;-77
2021/01/29 07:48:59;;;;;;;11.10;5.95;;;;;;;-0.12;100.00;97575.14;4509014;78;28690;-79
2021/01/29 07:55:26;;;;;;;11.05;5.80;;;;;;;-0.12;100.00;97564.08;4480914;78;43370;-78
2021/01/29 08:02:06;;;;;;;13.03;5.83;;;;;;;-0.01;100.00;97558.72;4477956;78;43210;-80
2021/01/29 08:08:17;;;;;;;12.73;6.78;;;;;;;0.04;100.00;97544.91;4485770;78;28643;-80
2021/01/29 08:14:50;;;;;;;11.18;5.58;;;;;;;0.23;100.00;97533.55;4484220;78;43228;-79
2021/01/29 08:21:51;;;;;;;11.93;4.60;;;;;;;0.12;100.00;97532.34;4503943;78;43241;-80
2021/01/29 08:28:18;;;;;;;11.45;5.53;;;;;;;-0.05;100.00;97521.33;4501562;78;28613;-80
2021/01/29 08:34:56;;;;;;;12.00;5.92;;;;;;;-0.08;100.00;97515.10;4508029;78;43306;-79
2021/01/29 08:41:19;;;;;;;12.98;6.40;;;;;;;-0.06;100.00;97510.95;4510728;78;28569;-81
2021/01/29 08:47:45;;;;;;;11.45;6.47;;;;;;;-0.36;100.00;97495.43;4495457;78;43334;-81
2021/01/29 08:54:30;;;;;;;12.60;6.53;;;;;;;-0.41;100.00;97497.34;4507553;78;43244;-81
2021/01/29 09:00:35;;;;;;;12.43;5.47;;;;;;;-0.44;100.00;97489.83;4509511;78;43261;-79
2021/01/29 09:06:41;;;;;;;12.82;6.37;;;;;;;-0.26;100.00;97491.91;4506466;78;28588;-79
2021/01/29 09:12:45;;;;;;;11.88;6.40;;;;;;;-0.15;100.00;97498.45;4499765;77;43206;-79
2021/01/29 09:18:57;;;;;;;13.75;6.95;;;;;;;-0.08;100.00;97496.61;4499943;78;43940;-78
2021/01/29 09:25:11;;;;;;;13.03;6.05;;;;;;;0.07;100.00;97503.04;4510975;78;43951;-78
2021/01/29 09:31:26;;;;;;;12.05;5.60;;;;;;;0.21;100.00;97521.05;4383625;80;28665;-79
2021/01/29 09:37:30;;;;;;;14.38;6.83;;;;;;;0.20;100.00;97522.08;4316959;81;28604;-78
2021/01/29 09:43:46;;;;;;;13.32;6.60;;;;;;;0.24;100.00;97516.67;4280538;81;43904;-78
2021/01/29 09:49:52;;;;;;;17.70;7.95;;;;;;;0.18;100.00;97500.32;4313817;82;43944;-77
2021/01/29 09:56:18;;;;;;;20.10;8.53;;;;;;;0.20;100.00;97490.84;4292839;81;28946;-79
2021/01/29 10:02:34;;;;;;;17.70;8.53;;;;;;;0.26;100.00;97477.66;4295972;81;43989;-79
2021/01/29 10:08:47;;;;;;;17.60;7.90;;;;;;;0.14;100.00;97460.75;4352927;80;43966;-78
2021/01/29 10:15:03;;;;;;;21.60;9.20;;;;;;;0.25;100.00;97452.73;4369373;80;43907;-79
2021/01/29 10:21:16;;;;;;;21.52;9.03;;;;;;;0.34;100.00;97446.23;4371121;80;43903;-78
2021/01/29 10:27:45;;;;;;;22.05;9.48;;;;;;;0.36;100.00;97447.33;4373977;80;44017;-79
2021/01/29 10:33:51;;;;;;;23.75;10.88;;;;;;;0.48;100.00;97458.11;4364804;80;43213;-78
2021/01/29 10:40:00;;;;;;;22.98;10.10;;;;;;;0.51;100.00;97451.08;4368774;81;44428;-78
2021/01/29 10:46:15;;;;;;;25.43;10.23;;;;;;;0.72;100.00;97440.79;4335262;81;28575;-77
2021/01/29 10:52:42;;;;;;;21.30;8.68;;;;;;;1.04;100.00;97440.91;4365463;80;28592;-77
2021/01/29 10:59:19;;;;;;;20.80;10.00;;;;;;;1.14;100.00;97433.03;4363310;81;44425;-77
2021/01/29 11:05:28;;;;;;;18.95;8.85;;;;;;;1.25;100.00;97421.28;4334948;81;28628;-77
2021/01/29 11:11:42;;;;;;;21.33;10.15;;;;;;;1.53;100.00;97406.06;4349235;81;44507;-83
2021/01/29 11:18:01;;;;;;;20.08;9.15;;;;;;;1.77;100.00;97386.44;4346539;81;28625;-84
2021/01/29 11:24:25;;;;;;;16.37;7.47;;;;;;;1.80;100.00;97385.50;4364034;80;28666;-82
2021/01/29 11:30:38;;;;;;;14.28;6.08;;;;;;;1.75;80.40;97376.05;4391960;80;28604;-82
2021/01/29 11:36:58;;;;;;;16.23;8.03;;;;;;;1.87;79.66;97369.55;4395766;80;28614;-83
2021/01/29 11:43:12;;;;;;;17.35;7.37;;;;;;;2.43;80.67;97357.72;4320433;81;28559;-83
2021/01/29 11:49:25;;;;;;;15.53;6.58;;;;;;;2.37;78.74;97341.37;4397796;81;28542;-83
2021/01/29 11:55:33;;;;;;;13.00;6.33;;;;;;;2.64;70.03;97329.12;4398579;80;28582;-82
2021/01/29 12:01:46;;;;;;;17.12;7.45;;;;;;;2.75;76.59;97322.28;4399627;80;28561;-83
2021/01/29 12:08:19;;;;;;;14.20;7.67;;;;;;;2.54;67.42;97317.72;4378192;80;28647;-81
2021/01/29 12:15:12;;;;;;;14.50;6.90;;;;;;;2.78;65.99;97307.23;4320516;80;28555;-82
2021/01/29 12:21:38;;;;;;;13.28;6.60;;;;;;;2.92;62.91;97302.06;4395215;80;47750;-83
2021/01/29 12:28:20;;;;;;;16.95;7.83;;;;;;;3.09;58.51;97297.43;4382227;80;28578;-78
2021/01/29 12:34:40;;;;;;;16.75;7.55;;;;;;;2.78;59.01;97283.34;4394701;80;28552;-81
2021/01/29 12:41:10;;;;;;;18.20;8.40;;;;;;;2.59;59.85;97279.91;4369724;80;28571;-80
2021/01/29 12:47:18;;;;;;;20.55;8.68;;;;;;;2.09;60.03;97270.56;4301459;81;28584;-80
2021/01/29 12:53:53;;;;;;;20.17;8.60;;;;;;;2.01;58.99;97259.42;4302142;81;28606;-80
2021/01/29 13:00:26;;;;;;;17.97;7.80;;;;;;;2.26;59.91;97246.62;4386861;79;28553;-80
2021/01/29 13:06:58;;;;;;;19.20;8.13;;;;;;;1.99;56.98;97245.08;4391909;79;28574;-80
2021/01/29 13:13:15;;;;;;;18.12;7.75;;;;;;;2.11;56.89;97227.91;4307967;81;28637;-82
2021/01/29 13:19:28;;;;;;;19.75;8.15;;;;;;;2.06;59.77;97225.13;4290854;82;28547;-80
2021/01/29 13:25:30;;;;;;;19.45;8.55;;;;;;;2.17;58.22;97223.05;4338803;79;28602;-79
2021/01/29 13:31:37;;;;;;;20.12;8.00;;;;;;;2.25;58.67;97222.47;4382711;80;28549;-79
2021/01/29 13:37:41;;;;;;;16.42;7.78;;;;;;;2.18;57.08;97225.17;4388704;80;28535;-77
2021/01/29 13:43:46;;;;;;;19.23;8.33;;;;;;;2.12;57.11;97218.92;4316516;80;28628;-82
2021/01/29 13:49:49;;;;;;;18.92;8.58;;;;;;;2.09;59.58;97216.22;4308112;81;28544;-81
2021/01/29 13:56:15;;;;;;;19.42;8.78;;;;;;;2.08;58.69;97206.64;4379398;80;28659;-81
2021/01/29 14:02:41;;;;;;;19.23;8.15;;;;;;;2.07;57.14;97198.38;4383069;80;28535;-80
2021/01/29 14:08:47;;;;;;;18.42;8.40;;;;;;;2.22;58.36;97189.25;4315012;81;28581;-79
2021/01/29 14:15:16;;;;;;;18.45;8.38;;;;;;;1.97;57.40;97190.66;4308976;81;28672;-81
2021/01/29 14:21:33;;;;;;;19.10;8.05;;;;;;;2.07;58.32;97186.97;4388809;80;28637;-81
2021/01/29 14:27:50;;;;;;;17.02;7.95;;;;;;;2.04;57.33;97182.13;4384773;79;84535;-83
2021/01/29 14:34:01;;;;;;;19.07;7.87;;;;;;;2.00;59.33;97173.80;4313458;80;28541;-82
2021/01/29 14:40:28;;;;;;;18.07;7.83;;;;;;;1.83;57.07;97166.95;4312104;80;28636;-82
2021/01/29 14:47:17;;;;;;;15.55;7.67;;;;;;;1.84;57.42;97155.83;4318788;80;28601;-80
2021/01/29 14:53:37;;;;;;;19.48;8.03;;;;;;;1.82;57.95;97142.78;4321884;80;28563;-83
2021/01/29 14:59:54;;;;;;;18.57;8.20;;;;;;;1.72;57.83;97127.92;4316437;80;28596;-82
2021/01/29 15:05:59;;;;;;;18.40;7.67;;;;;;;1.80;58.08;97136.41;4312168;80;28615;-82
2021/01/29 15:12:04;;;;;;;21.40;8.28;;;;;;;1.74;58.77;97126.67;4309529;81;28536;-84
2021/01/29 15:18:11;;;;;;;21.48;7.72;;;;;;;1.64;57.61;97123.73;4312652;81;28595;-83
2021/01/29 15:24:18;;;;;;;21.60;8.58;;;;;;;1.72;58.88;97134.55;4319671;80;28571;-82
2021/01/29 15:30:42;;;;;;;19.75;7.00;;;;;;;1.65;58.68;97124.84;4315200;80;28601;-82
2021/01/29 15:36:51;;;;;;;20.45;7.90;;;;;;;1.63;60.45;97126.91;4314300;80;28556;-82
2021/01/29 15:42:55;;;;;;;21.75;9.00;;;;;;;1.49;58.56;97124.09;4310209;80;28607;-82
2021/01/29 15:49:08;;;;;;;20.68;8.28;;;;;;;1.27;60.65;97123.19;4325771;80;28549;-79
2021/01/29 15:55:28;;;;;;;22.75;8.73;;;;;;;1.20;61.47;97116.63;4327557;82;28599;-79
2021/01/29 16:01:39;;;;;;;20.57;8.50;;;;;;;1.19;63.48;97118.16;4300676;80;28670;-78
2021/01/29 16:07:45;;;;;;;20.00;9.03;;;;;;;1.13;65.15;97117.20;4311744;80;28639;-79
2021/01/29 16:13:48;;;;;;;20.32;9.33;;;;;;;1.30;66.70;97109.53;4276963;82;28621;-80
2021/01/29 16:20:08;;;;;;;25.32;10.60;;;;;;;1.23;66.10;97103.48;4313540;80;28625;-79
2021/01/29 16:26:18;;;;;;;26.93;11.53;;;;;;;0.99;68.61;97102.47;4327402;81;28579;-78
2021/01/29 16:32:25;;;;;;;21.20;9.78;;;;;;;0.87;69.46;97103.19;4321815;81;28573;-85
2021/01/29 16:38:34;;;;;;;32.55;14.90;;;;;;;0.90;72.27;97098.77;4335397;81;28610;-84
2021/01/29 16:44:41;;;;;;;35.92;13.65;;;;;;;0.49;77.82;97094.31;4321984;81;28560;-84
2021/01/29 16:51:11;;;;;;;28.73;13.05;;;;;;;0.17;82.46;97093.48;4309889;81;28562;-80
2021/01/29 16:57:19;;;;;;;28.55;12.68;;;;;;;0.17;86.75;97098.27;4325555;81;43384;-81
2021/01/29 17:03:33;;;;;;;35.90;14.87;;;;;;;0.09;95.11;97085.30;4346107;81;28537;-85
2021/01/29 17:09:40;;;;;;;28.32;12.95;;;;;;;-0.09;100.00;97084.16;4330531;81;28551;-83
2021/01/29 17:15:44;;;;;;;27.52;11.33;;;;;;;-0.17;100.00;97072.01;4326541;81;28546;-83
2021/01/29 17:21:57;;;;;;;30.77;12.20;;;;;;;-0.12;100.00;97075.84;4337428;81;28619;-83
2021/01/29 17:28:04;;;;;;;25.12;12.37;;;;;;;-0.26;100.00;97063.20;4332093;81;42867;-86
2021/01/29 17:34:27;;;;;;;29.82;13.22;;;;;;;-0.20;100.00;97067.66;4325113;81;28572;-82
2021/01/29 17:40:32;;;;;;;28.32;13.28;;;;;;;-0.44;100.00;97059.43;4360898;81;43431;-81
2021/01/29 17:46:36;;;;;;;22.87;9.98;;;;;;;-0.47;100.00;97054.05;4349583;81;44427;-84
2021/01/29 17:52:39;;;;;;;23.75;10.30;;;;;;;-0.49;100.00;97060.55;4334378;81;44523;-83
2021/01/29 17:58:40;;;;;;;21.05;10.25;;;;;;;-0.34;100.00;97051.87;4320186;81;44432;-84
2021/01/29 18:04:43;;;;;;;22.13;9.90;;;;;;;-0.38;100.00;97042.73;4340905;81;44450;-84
2021/01/29 18:10:47;;;;;;;21.00;9.78;;;;;;;-0.30;100.00;97037.75;4352604;81;43949;-83
2021/01/29 18:16:49;;;;;;;25.82;11.38;;;;;;;-0.38;100.00;97022.13;4359382;81;43079;-81
2021/01/29 18:22:51;;;;;;;26.82;12.65;;;;;;;-0.41;100.00;97025.20;4335790;81;43275;-84
2021/01/29 18:29:13;;;;;;;29.45;12.70;;;;;;;-0.55;100.00;97021.80;4373584;80;43387;-83
2021/01/29 18:35:42;;;;;;;29.55;13.08;;;;;;;-0.63;100.00;97021.01;4325510;81;43478;-86
2021/01/29 18:41:45;;;;;;;34.05;15.32;;;;;;;-0.61;100.00;97008.41;4104512;85;28603;-84
2021/01/29 18:47:47;;;;;;;30.50;13.20;;;;;;;-0.65;100.00;97009.03;4156394;85;43789;-80
2021/01/29 18:53:49;;;;;;;33.78;14.68;;;;;;;-0.73;100.00;97003.48;4292711;82;44146;-84
2021/01/29 18:59:51;;;;;;;35.73;15.83;;;;;;;-0.68;100.00;96998.91;4264239;82;44284;-84
2021/01/29 19:05:56;;;;;;;36.17;16.20;;;;;;;-0.75;100.00;97003.69;4301558;82;44451;-84
2021/01/29 19:11:59;;;;;;;39.30;18.20;;;;;;;-0.79;100.00;96997.22;4300517;82;44437;-81
2021/01/29 19:18:01;;;;;;;35.00;15.88;;;;;;;-0.99;100.00;96984.06;4285187;82;44438;-84
2021/01/29 19:24:04;;;;;;;39.73;17.10;;;;;;;-1.07;100.00;96972.45;4275242;82;44489;-83
2021/01/29 19:30:10;;;;;;;37.93;17.05;;;;;;;-0.97;100.00;96970.69;4262040;82;44473;-85
2021/01/29 19:36:12;;;;;;;42.48;18.40;;;;;;;-1.02;100.00;96964.21;4279768;82;28633;-84
2021/01/29 19:42:16;;;;;;;33.58;15.38;;;;;;;-1.17;100.00;96958.36;4184198;83;44085;-85
2021/01/29 19:48:19;;;;;;;34.10;15.18;;;;;;;-1.16;100.00;96958.66;4273623;82;44119;-81
2021/01/29 19:54:21;;;;;;;40.63;16.50;;;;;;;-1.13;100.00;96959.58;4273962;82;44433;-83
2021/01/29 20:00:28;;;;;;;32.58;14.83;;;;;;;-1.19;100.00;96957.77;4261364;82;44145;-80
2021/01/29 20:06:36;;;;;;;34.08;14.78;;;;;;;-1.07;100.00;96957.94;4265859;82;44153;-80
2021/01/29 20:12:40;;;;;;;35.80;16.27;;;;;;;-1.05;100.00;96959.33;4269465;82;44505;-78
2021/01/29 20:18:42;;;;;;;32.95;15.20;;;;;;;-1.19;100.00;96956.44;4262384;82;44148;-78
2021/01/29 20:24:45;;;;;;;32.55;15.00;;;;;;;-1.20;100.00;96960.09;4267728;82;44138;-79
2021/01/29 20:30:52;;;;;;;39.25;17.55;;;;;;;-1.26;100.00;96955.14;4264372;82;44485;-77
2021/01/29 20:36:55;;;;;;;34.43;15.72;;;;;;;-1.32;100.00;96954.14;4269470;82;44118;-77
2021/01/29 20:42:57;;;;;;;35.35;15.72;;;;;;;-1.12;100.00;96957.24;4272423;82;44507;-76
2021/01/29 20:48:59;;;;;;;40.60;17.23;;;;;;;-1.17;100.00;96969.73;4282629;82;44430;-77
2021/01/29 20:55:01;;;;;;;38.33;17.67;;;;;;;-1.22;100.00;96966.09;4273147;82;44476;-77
2021/01/29 21:01:05;;;;;;;41.90;18.73;;;;;;;-1.38;100.00;96959.43;4270669;82;43644;-79
2021/01/29 21:07:08;;;;;;;45.33;19.15;;;;;;;-1.46;100.00;96957.30;4283739;82;43740;-79
2021/01/29 21:13:12;;;;;;;48.60;19.48;;;;;;;-1.42;100.00;96957.70;4280539;82;43806;-79
2021/01/29 21:19:18;;;;;;;47.55;20.60;;;;;;;-1.29;100.00;96963.47;4271045;82;43759;-81
2021/01/29 21:25:18;;;;;;;46.92;20.35;;;;;;;-1.37;100.00;96967.11;4281566;82;43758;-80
2021/01/29 21:31:20;;;;;;;54.03;23.18;;;;;;;-1.39;100.00;96967.05;4277092;82;44124;-79
2021/01/29 21:37:22;;;;;;;48.30;21.95;;;;;;;-1.43;100.00;96970.59;4268921;82;44453;-81
2021/01/29 21:43:29;;;;;;;57.45;23.20;;;;;;;-1.37;100.00;96976.87;4218578;83;44119;-80
2021/01/29 21:49:31;;;;;;;47.08;21.10;;;;;;;-1.32;100.00;96987.09;4211609;83;44160;-84
2021/01/29 21:55:34;;;;;;;50.85;21.52;;;;;;;-1.36;100.00;96989.03;4216806;83;43588;-81
2021/01/29 22:01:37;;;;;;;46.45;21.50;;;;;;;-1.28;100.00;96983.55;4220224;83;44081;-81
2021/01/29 22:07:40;;;;;;;45.33;21.30;;;;;;;-1.20;100.00;96989.11;4205667;83;44057;-82
2021/01/29 22:13:44;;;;;;;50.98;22.50;;;;;;;-1.17;100.00;97006.65;4147251;84;43632;-81
2021/01/29 22:19:46;;;;;;;57.63;24.47;;;;;;;-1.29;100.00;97003.02;4146139;84;28621;-81
2021/01/29 22:25:49;;;;;;;47.55;20.15;;;;;;;-1.27;100.00;97013.65;4147350;84;43769;-82
2021/01/29 22:31:57;;;;;;;52.98;23.42;;;;;;;-1.27;100.00;97016.28;4236125;83;44012;-82
2021/01/29 22:38:01;;;;;;;42.85;19.80;;;;;;;-1.28;100.00;97012.03;4238377;82;43732;-82
2021/01/29 22:44:05;;;;;;;45.35;20.30;;;;;;;-1.14;100.00;97019.42;4259775;82;43730;-81
2021/01/29 22:50:08;;;;;;;47.00;20.15;;;;;;;-1.28;100.00;97016.50;4304718;82;43771;-81
2021/01/29 22:56:11;;;;;;;52.90;23.07;;;;;;;-1.26;100.00;97024.49;4314523;82;44124;-80
2021/01/29 23:02:13;;;;;;;46.15;21.10;;;;;;;-1.33;100.00;97029.48;4295616;82;43796;-81
2021/01/29 23:08:16;;;;;;;47.88;22.05;;;;;;;-1.43;100.00;97028.59;4268831;82;44079;-82
2021/01/29 23:14:20;;;;;;;52.88;23.67;;;;;;;-1.46;100.00;97032.43;4271376;82;44216;-82
2021/01/29 23:20:30;;;;;;;55.50;23.38;;;;;;;-1.66;100.00;97036.89;4278468;81;44128;-81
2021/01/29 23:26:32;;;;;;;48.38;21.42;;;;;;;-1.60;100.00;97041.36;4284229;82;44454;-81
2021/01/29 23:32:35;;;;;;;51.95;22.62;;;;;;;-1.54;100.00;97047.12;4270453;82;43833;-81
2021/01/29 23:38:38;;;;;;;51.40;22.60;;;;;;;-1.59;100.00;97047.73;4286389;82;43990;-82
2021/01/29 23:44:39;;;;;;;56.58;23.57;;;;;;;-1.66;100.00;97048.74;4297828;82;44127;-82
2021/01/29 23:50:42;;;;;;;46.40;20.97;;;;;;;-1.62;100.00;97056.54;4289649;82;43773;-81
2021/01/29 23:56:46;;;;;;;48.28;21.15;;;;;;;-1.70;100.00;97063.65;4300687;82;43758;-81
